sensor_id;sensor_type;location;lat;lon;timestamp;P1;durP1;ratioP1;P2;durP2;ratioP2
38425;SDS011;24210;51.460;6.148;2024-02-14T00:02:12;1.90;;;1.50;;
38425;SDS011;24210;51.460;6.148;2024-02-14T00:04:37;4.30;;;1.57;;
38425;SDS011;24210;51.460;6.148;2024-02-14T00:07:03;3.13;;;1.52;;
38425;SDS011;24210;51.460;6.148;2024-02-14T00:09:29;3.27;;;1.97;;
38425;SDS011;24210;51.460;6.148;2024-02-14T00:11:54;5.87;;;1.60;;
38425;SDS011;24210;51.460;6.148;2024-02-14T00:14:19;2.47;;;1.47;;
38425;SDS011;24210;51.460;6.148;2024-02-14T00:16:45;8.23;;;1.80;;
38425;SDS011;24210;51.460;6.148;2024-02-14T00:19:10;3.47;;;1.53;;
38425;SDS011;24210;51.460;6.148;2024-02-14T00:21:35;2.33;;;1.20;;
38425;SDS011;24210;51.460;6.148;2024-02-14T00:24:01;1.83;;;1.20;;
38425;SDS011;24210;51.460;6.148;2024-02-14T00:26:26;3.10;;;1.40;;
38425;SDS011;24210;51.460;6.148;2024-02-14T00:28:52;3.07;;;1.80;;
38425;SDS011;24210;51.460;6.148;2024-02-14T00:31:17;2.40;;;1.20;;
38425;SDS011;24210;51.460;6.148;2024-02-14T00:33:42;3.67;;;1.33;;
38425;SDS011;24210;51.460;6.148;2024-02-14T00:36:09;2.67;;;1.65;;
38425;SDS011;24210;51.460;6.148;2024-02-14T00:38:34;3.10;;;1.13;;
38425;SDS011;24210;51.460;6.148;2024-02-14T00:40:59;2.60;;;1.03;;
38425;SDS011;24210;51.460;6.148;2024-02-14T00:43:25;5.00;;;1.70;;
38425;SDS011;24210;51.460;6.148;2024-02-14T00:45:50;2.97;;;1.40;;
38425;SDS011;24210;51.460;6.148;2024-02-14T00:48:15;1.87;;;1.03;;
38425;SDS011;24210;51.460;6.148;2024-02-14T00:50:40;1.87;;;1.03;;
38425;SDS011;24210;51.460;6.148;2024-02-14T00:53:06;2.60;;;1.10;;
38425;SDS011;24210;51.460;6.148;2024-02-14T00:55:31;2.90;;;1.53;;
38425;SDS011;24210;51.460;6.148;2024-02-14T00:57:57;2.45;;;1.40;;
38425;SDS011;24210;51.460;6.148;2024-02-14T01:00:22;1.37;;;1.20;;
38425;SDS011;24210;51.460;6.148;2024-02-14T01:02:47;3.60;;;1.57;;
38425;SDS011;24210;51.460;6.148;2024-02-14T01:05:13;1.20;;;1.00;;
38425;SDS011;24210;51.460;6.148;2024-02-14T01:07:38;3.90;;;2.03;;
38425;SDS011;24210;51.460;6.148;2024-02-14T01:10:03;2.00;;;1.23;;
38425;SDS011;24210;51.460;6.148;2024-02-14T01:12:28;3.00;;;1.70;;
38425;SDS011;24210;51.460;6.148;2024-02-14T01:14:56;1.35;;;1.00;;
38425;SDS011;24210;51.460;6.148;2024-02-14T01:17:22;5.83;;;1.67;;
38425;SDS011;24210;51.460;6.148;2024-02-14T01:19:47;3.80;;;1.23;;
38425;SDS011;24210;51.460;6.148;2024-02-14T01:22:12;3.13;;;1.33;;
38425;SDS011;24210;51.460;6.148;2024-02-14T01:24:41;5.70;;;1.85;;
38425;SDS011;24210;51.460;6.148;2024-02-14T01:27:07;4.78;;;1.75;;
38425;SDS011;24210;51.460;6.148;2024-02-14T01:29:33;1.57;;;1.20;;
38425;SDS011;24210;51.460;6.148;2024-02-14T01:31:58;1.63;;;0.87;;
38425;SDS011;24210;51.460;6.148;2024-02-14T01:34:24;1.27;;;1.17;;
38425;SDS011;24210;51.460;6.148;2024-02-14T01:36:49;4.37;;;1.53;;
38425;SDS011;24210;51.460;6.148;2024-02-14T01:39:14;2.00;;;1.90;;
38425;SDS011;24210;51.460;6.148;2024-02-14T01:41:46;2.97;;;1.60;;
38425;SDS011;24210;51.460;6.148;2024-02-14T01:44:13;2.67;;;1.58;;
38425;SDS011;24210;51.460;6.148;2024-02-14T01:46:38;0.93;;;0.83;;
38425;SDS011;24210;51.460;6.148;2024-02-14T01:49:04;2.00;;;1.60;;
38425;SDS011;24210;51.460;6.148;2024-02-14T01:51:29;3.00;;;1.00;;
38425;SDS011;24210;51.460;6.148;2024-02-14T01:53:54;2.77;;;1.50;;
38425;SDS011;24210;51.460;6.148;2024-02-14T01:56:20;1.88;;;1.73;;
38425;SDS011;24210;51.460;6.148;2024-02-14T01:58:46;2.70;;;1.37;;
38425;SDS011;24210;51.460;6.148;2024-02-14T02:01:11;3.57;;;1.10;;
38425;SDS011;24210;51.460;6.148;2024-02-14T02:03:37;2.63;;;1.80;;
38425;SDS011;24210;51.460;6.148;2024-02-14T02:06:03;4.30;;;1.87;;
38425;SDS011;24210;51.460;6.148;2024-02-14T02:08:28;3.53;;;1.70;;
38425;SDS011;24210;51.460;6.148;2024-02-14T02:10:54;5.57;;;1.60;;
38425;SDS011;24210;51.460;6.148;2024-02-14T02:13:19;2.77;;;1.53;;
38425;SDS011;24210;51.460;6.148;2024-02-14T02:15:46;4.78;;;1.75;;
38425;SDS011;24210;51.460;6.148;2024-02-14T02:18:11;2.67;;;1.37;;
38425;SDS011;24210;51.460;6.148;2024-02-14T02:20:37;2.63;;;1.60;;
38425;SDS011;24210;51.460;6.148;2024-02-14T02:23:02;2.70;;;1.60;;
38425;SDS011;24210;51.460;6.148;2024-02-14T02:25:27;3.17;;;1.83;;
38425;SDS011;24210;51.460;6.148;2024-02-14T02:27:53;5.03;;;1.80;;
38425;SDS011;24210;51.460;6.148;2024-02-14T02:30:24;5.85;;;2.40;;
38425;SDS011;24210;51.460;6.148;2024-02-14T02:32:50;3.10;;;1.60;;
38425;SDS011;24210;51.460;6.148;2024-02-14T02:35:16;2.17;;;1.37;;
38425;SDS011;24210;51.460;6.148;2024-02-14T02:37:41;1.73;;;1.60;;
38425;SDS011;24210;51.460;6.148;2024-02-14T02:40:07;3.10;;;1.58;;
38425;SDS011;24210;51.460;6.148;2024-02-14T02:42:34;3.08;;;1.55;;
38425;SDS011;24210;51.460;6.148;2024-02-14T02:45:00;4.07;;;1.40;;
38425;SDS011;24210;51.460;6.148;2024-02-14T02:47:30;5.35;;;1.83;;
38425;SDS011;24210;51.460;6.148;2024-02-14T02:49:55;3.73;;;2.00;;
38425;SDS011;24210;51.460;6.148;2024-02-14T02:54:47;6.00;;;2.72;;
38425;SDS011;24210;51.460;6.148;2024-02-14T02:57:12;2.47;;;1.00;;
38425;SDS011;24210;51.460;6.148;2024-02-14T02:59:38;3.90;;;1.87;;
38425;SDS011;24210;51.460;6.148;2024-02-14T03:02:07;3.35;;;1.75;;
38425;SDS011;24210;51.460;6.148;2024-02-14T03:04:33;3.43;;;2.07;;
38425;SDS011;24210;51.460;6.148;2024-02-14T03:06:58;6.13;;;2.37;;
38425;SDS011;24210;51.460;6.148;2024-02-14T03:09:24;4.73;;;2.23;;
38425;SDS011;24210;51.460;6.148;2024-02-14T03:11:51;3.30;;;1.98;;
38425;SDS011;24210;51.460;6.148;2024-02-14T03:14:16;3.60;;;2.40;;
38425;SDS011;24210;51.460;6.148;2024-02-14T03:16:41;2.57;;;1.97;;
38425;SDS011;24210;51.460;6.148;2024-02-14T03:19:07;2.87;;;1.03;;
38425;SDS011;24210;51.460;6.148;2024-02-14T03:21:32;2.67;;;1.93;;
38425;SDS011;24210;51.460;6.148;2024-02-14T03:24:00;4.20;;;2.42;;
38425;SDS011;24210;51.460;6.148;2024-02-14T03:26:25;3.53;;;2.33;;
38425;SDS011;24210;51.460;6.148;2024-02-14T03:28:51;4.72;;;3.00;;
38425;SDS011;24210;51.460;6.148;2024-02-14T03:33:43;2.20;;;2.10;;
38425;SDS011;24210;51.460;6.148;2024-02-14T03:36:09;3.80;;;1.80;;
38425;SDS011;24210;51.460;6.148;2024-02-14T03:38:35;1.85;;;1.45;;
38425;SDS011;24210;51.460;6.148;2024-02-14T03:41:00;3.60;;;2.57;;
38425;SDS011;24210;51.460;6.148;2024-02-14T03:43:25;2.87;;;1.83;;
38425;SDS011;24210;51.460;6.148;2024-02-14T03:45:51;2.80;;;2.17;;
38425;SDS011;24210;51.460;6.148;2024-02-14T03:48:19;3.00;;;2.00;;
38425;SDS011;24210;51.460;6.148;2024-02-14T03:50:45;2.60;;;2.33;;
38425;SDS011;24210;51.460;6.148;2024-02-14T03:53:10;3.03;;;2.10;;
38425;SDS011;24210;51.460;6.148;2024-02-14T03:55:39;3.13;;;2.08;;
38425;SDS011;24210;51.460;6.148;2024-02-14T03:58:04;2.23;;;1.53;;
38425;SDS011;24210;51.460;6.148;2024-02-14T04:00:31;4.35;;;2.65;;
38425;SDS011;24210;51.460;6.148;2024-02-14T04:02:56;3.17;;;2.03;;
38425;SDS011;24210;51.460;6.148;2024-02-14T04:05:24;2.33;;;2.08;;
38425;SDS011;24210;51.460;6.148;2024-02-14T04:07:49;3.03;;;1.73;;
38425;SDS011;24210;51.460;6.148;2024-02-14T04:10:17;5.07;;;2.30;;
38425;SDS011;24210;51.460;6.148;2024-02-14T04:12:42;4.63;;;2.57;;
38425;SDS011;24210;51.460;6.148;2024-02-14T04:15:08;5.23;;;2.63;;
38425;SDS011;24210;51.460;6.148;2024-02-14T04:17:35;4.15;;;2.38;;
38425;SDS011;24210;51.460;6.148;2024-02-14T04:20:00;4.87;;;3.23;;
38425;SDS011;24210;51.460;6.148;2024-02-14T04:22:25;2.30;;;2.10;;
38425;SDS011;24210;51.460;6.148;2024-02-14T04:24:51;3.67;;;2.47;;
38425;SDS011;24210;51.460;6.148;2024-02-14T04:27:16;1.23;;;0.80;;
38425;SDS011;24210;51.460;6.148;2024-02-14T04:29:45;2.67;;;2.40;;
38425;SDS011;24210;51.460;6.148;2024-02-14T04:32:10;2.83;;;2.55;;
38425;SDS011;24210;51.460;6.148;2024-02-14T04:34:35;6.37;;;3.17;;
38425;SDS011;24210;51.460;6.148;2024-02-14T04:37:03;4.82;;;2.85;;
38425;SDS011;24210;51.460;6.148;2024-02-14T04:39:35;3.90;;;2.78;;
38425;SDS011;24210;51.460;6.148;2024-02-14T04:42:00;4.27;;;2.30;;
38425;SDS011;24210;51.460;6.148;2024-02-14T04:44:26;2.13;;;1.77;;
38425;SDS011;24210;51.460;6.148;2024-02-14T04:46:51;4.10;;;1.40;;
38425;SDS011;24210;51.460;6.148;2024-02-14T04:49:16;2.23;;;1.90;;
38425;SDS011;24210;51.460;6.148;2024-02-14T04:51:42;5.80;;;1.90;;
38425;SDS011;24210;51.460;6.148;2024-02-14T04:54:07;3.33;;;2.07;;
38425;SDS011;24210;51.460;6.148;2024-02-14T04:56:33;2.55;;;2.00;;
38425;SDS011;24210;51.460;6.148;2024-02-14T04:58:58;2.23;;;1.90;;
38425;SDS011;24210;51.460;6.148;2024-02-14T05:01:24;5.03;;;2.40;;
38425;SDS011;24210;51.460;6.148;2024-02-14T05:03:49;3.63;;;1.90;;
38425;SDS011;24210;51.460;6.148;2024-02-14T05:06:14;4.63;;;2.50;;
38425;SDS011;24210;51.460;6.148;2024-02-14T05:08:40;4.70;;;3.03;;
38425;SDS011;24210;51.460;6.148;2024-02-14T05:11:05;3.90;;;2.77;;
38425;SDS011;24210;51.460;6.148;2024-02-14T05:13:30;5.57;;;3.67;;
38425;SDS011;24210;51.460;6.148;2024-02-14T05:15:56;4.87;;;3.33;;
38425;SDS011;24210;51.460;6.148;2024-02-14T05:18:21;6.23;;;3.50;;
38425;SDS011;24210;51.460;6.148;2024-02-14T05:20:46;4.87;;;3.80;;
38425;SDS011;24210;51.460;6.148;2024-02-14T05:23:11;5.17;;;3.53;;
38425;SDS011;24210;51.460;6.148;2024-02-14T05:25:37;5.20;;;2.70;;
38425;SDS011;24210;51.460;6.148;2024-02-14T05:28:02;3.40;;;2.10;;
38425;SDS011;24210;51.460;6.148;2024-02-14T05:30:28;5.93;;;2.30;;
38425;SDS011;24210;51.460;6.148;2024-02-14T05:32:54;4.57;;;2.73;;
38425;SDS011;24210;51.460;6.148;2024-02-14T05:35:19;4.68;;;2.67;;
38425;SDS011;24210;51.460;6.148;2024-02-14T05:37:45;5.47;;;2.80;;
38425;SDS011;24210;51.460;6.148;2024-02-14T05:40:14;4.40;;;2.78;;
38425;SDS011;24210;51.460;6.148;2024-02-14T05:42:39;2.73;;;2.30;;
38425;SDS011;24210;51.460;6.148;2024-02-14T05:45:05;7.03;;;3.50;;
38425;SDS011;24210;51.460;6.148;2024-02-14T05:47:30;3.33;;;3.00;;
38425;SDS011;24210;51.460;6.148;2024-02-14T05:49:56;4.97;;;3.15;;
38425;SDS011;24210;51.460;6.148;2024-02-14T05:52:21;4.50;;;3.47;;
38425;SDS011;24210;51.460;6.148;2024-02-14T05:54:47;3.67;;;3.13;;
38425;SDS011;24210;51.460;6.148;2024-02-14T05:57:12;4.53;;;3.80;;
38425;SDS011;24210;51.460;6.148;2024-02-14T05:59:37;3.90;;;3.60;;
38425;SDS011;24210;51.460;6.148;2024-02-14T06:02:03;4.00;;;3.70;;
38425;SDS011;24210;51.460;6.148;2024-02-14T06:04:30;4.20;;;3.83;;
38425;SDS011;24210;51.460;6.148;2024-02-14T06:06:55;5.20;;;2.83;;
38425;SDS011;24210;51.460;6.148;2024-02-14T06:09:21;3.43;;;2.93;;
38425;SDS011;24210;51.460;6.148;2024-02-14T06:11:46;3.97;;;3.23;;
38425;SDS011;24210;51.460;6.148;2024-02-14T06:14:11;2.47;;;1.80;;
38425;SDS011;24210;51.460;6.148;2024-02-14T06:16:37;3.92;;;3.47;;
38425;SDS011;24210;51.460;6.148;2024-02-14T06:19:03;3.63;;;3.13;;
38425;SDS011;24210;51.460;6.148;2024-02-14T06:21:29;5.40;;;3.03;;
38425;SDS011;24210;51.460;6.148;2024-02-14T06:23:54;4.20;;;3.47;;
38425;SDS011;24210;51.460;6.148;2024-02-14T06:26:20;4.60;;;3.70;;
38425;SDS011;24210;51.460;6.148;2024-02-14T06:28:45;5.00;;;3.57;;
38425;SDS011;24210;51.460;6.148;2024-02-14T06:31:10;3.97;;;3.57;;
38425;SDS011;24210;51.460;6.148;2024-02-14T06:33:36;4.40;;;3.87;;
38425;SDS011;24210;51.460;6.148;2024-02-14T06:36:01;4.90;;;3.67;;
38425;SDS011;24210;51.460;6.148;2024-02-14T06:38:27;5.73;;;3.50;;
38425;SDS011;24210;51.460;6.148;2024-02-14T06:40:52;5.50;;;3.80;;
38425;SDS011;24210;51.460;6.148;2024-02-14T06:43:17;5.10;;;3.67;;
38425;SDS011;24210;51.460;6.148;2024-02-14T06:45:42;5.77;;;4.37;;
38425;SDS011;24210;51.460;6.148;2024-02-14T06:48:08;5.50;;;3.80;;
38425;SDS011;24210;51.460;6.148;2024-02-14T06:50:34;8.40;;;5.00;;
38425;SDS011;24210;51.460;6.148;2024-02-14T06:52:59;6.70;;;3.77;;
38425;SDS011;24210;51.460;6.148;2024-02-14T06:55:25;5.63;;;4.22;;
38425;SDS011;24210;51.460;6.148;2024-02-14T06:57:51;6.33;;;4.13;;
38425;SDS011;24210;51.460;6.148;2024-02-14T07:00:16;5.00;;;4.27;;
38425;SDS011;24210;51.460;6.148;2024-02-14T07:02:42;4.93;;;4.37;;
38425;SDS011;24210;51.460;6.148;2024-02-14T07:05:08;6.18;;;5.45;;
38425;SDS011;24210;51.460;6.148;2024-02-14T07:07:37;4.43;;;3.10;;
38425;SDS011;24210;51.460;6.148;2024-02-14T07:10:02;5.97;;;3.47;;
38425;SDS011;24210;51.460;6.148;2024-02-14T07:12:28;5.17;;;4.27;;
38425;SDS011;24210;51.460;6.148;2024-02-14T07:14:55;3.72;;;2.53;;
38425;SDS011;24210;51.460;6.148;2024-02-14T07:17:20;6.47;;;4.07;;
38425;SDS011;24210;51.460;6.148;2024-02-14T07:19:45;6.47;;;2.97;;
38425;SDS011;24210;51.460;6.148;2024-02-14T07:22:14;5.43;;;3.85;;
38425;SDS011;24210;51.460;6.148;2024-02-14T07:24:41;4.90;;;3.75;;
38425;SDS011;24210;51.460;6.148;2024-02-14T07:27:06;7.13;;;3.83;;
38425;SDS011;24210;51.460;6.148;2024-02-14T07:29:31;6.00;;;3.93;;
38425;SDS011;24210;51.460;6.148;2024-02-14T07:31:56;5.70;;;3.17;;
38425;SDS011;24210;51.460;6.148;2024-02-14T07:34:23;7.63;;;4.13;;
38425;SDS011;24210;51.460;6.148;2024-02-14T07:36:49;6.20;;;4.10;;
38425;SDS011;24210;51.460;6.148;2024-02-14T07:39:14;4.67;;;4.23;;
38425;SDS011;24210;51.460;6.148;2024-02-14T07:41:39;4.63;;;3.83;;
38425;SDS011;24210;51.460;6.148;2024-02-14T07:44:04;5.93;;;4.23;;
38425;SDS011;24210;51.460;6.148;2024-02-14T07:46:30;5.00;;;3.87;;
38425;SDS011;24210;51.460;6.148;2024-02-14T07:48:56;7.13;;;3.97;;
38425;SDS011;24210;51.460;6.148;2024-02-14T07:51:22;6.85;;;4.90;;
38425;SDS011;24210;51.460;6.148;2024-02-14T07:53:48;7.87;;;4.77;;
38425;SDS011;24210;51.460;6.148;2024-02-14T07:56:15;6.38;;;5.10;;
38425;SDS011;24210;51.460;6.148;2024-02-14T07:58:43;7.63;;;4.18;;
38425;SDS011;24210;51.460;6.148;2024-02-14T08:01:08;8.07;;;5.03;;
38425;SDS011;24210;51.460;6.148;2024-02-14T08:03:33;5.70;;;3.57;;
38425;SDS011;24210;51.460;6.148;2024-02-14T08:05:58;10.43;;;3.90;;
38425;SDS011;24210;51.460;6.148;2024-02-14T08:08:25;7.80;;;5.40;;
38425;SDS011;24210;51.460;6.148;2024-02-14T08:13:17;4.72;;;3.95;;
38425;SDS011;24210;51.460;6.148;2024-02-14T08:15:42;10.10;;;4.27;;
38425;SDS011;24210;51.460;6.148;2024-02-14T08:18:07;5.50;;;4.20;;
38425;SDS011;24210;51.460;6.148;2024-02-14T08:20:33;6.43;;;5.27;;
38425;SDS011;24210;51.460;6.148;2024-02-14T08:22:58;8.57;;;4.77;;
38425;SDS011;24210;51.460;6.148;2024-02-14T08:25:24;4.13;;;3.37;;
38425;SDS011;24210;51.460;6.148;2024-02-14T08:27:49;7.63;;;4.13;;
38425;SDS011;24210;51.460;6.148;2024-02-14T08:30:14;2.90;;;2.23;;
38425;SDS011;24210;51.460;6.148;2024-02-14T08:32:40;5.43;;;3.90;;
38425;SDS011;24210;51.460;6.148;2024-02-14T08:35:05;8.57;;;3.40;;
38425;SDS011;24210;51.460;6.148;2024-02-14T08:37:32;5.47;;;2.33;;
38425;SDS011;24210;51.460;6.148;2024-02-14T08:39:57;7.80;;;3.43;;
38425;SDS011;24210;51.460;6.148;2024-02-14T08:42:23;7.53;;;5.07;;
38425;SDS011;24210;51.460;6.148;2024-02-14T08:44:48;8.60;;;5.40;;
38425;SDS011;24210;51.460;6.148;2024-02-14T08:47:13;6.90;;;4.73;;
38425;SDS011;24210;51.460;6.148;2024-02-14T08:49:41;8.80;;;4.57;;
38425;SDS011;24210;51.460;6.148;2024-02-14T08:52:07;6.22;;;4.53;;
38425;SDS011;24210;51.460;6.148;2024-02-14T08:54:33;8.65;;;4.38;;
38425;SDS011;24210;51.460;6.148;2024-02-14T08:56:58;5.77;;;4.83;;
38425;SDS011;24210;51.460;6.148;2024-02-14T08:59:24;5.97;;;2.97;;
38425;SDS011;24210;51.460;6.148;2024-02-14T09:01:49;4.37;;;3.80;;
38425;SDS011;24210;51.460;6.148;2024-02-14T09:04:14;5.10;;;3.30;;
38425;SDS011;24210;51.460;6.148;2024-02-14T09:06:40;7.00;;;4.10;;
38425;SDS011;24210;51.460;6.148;2024-02-14T09:09:06;7.80;;;3.10;;
38425;SDS011;24210;51.460;6.148;2024-02-14T09:11:31;4.67;;;3.33;;
38425;SDS011;24210;51.460;6.148;2024-02-14T09:13:57;4.03;;;3.33;;
38425;SDS011;24210;51.460;6.148;2024-02-14T09:16:27;3.00;;;2.22;;
38425;SDS011;24210;51.460;6.148;2024-02-14T09:18:53;6.00;;;3.03;;
38425;SDS011;24210;51.460;6.148;2024-02-14T09:21:18;8.40;;;3.03;;
38425;SDS011;24210;51.460;6.148;2024-02-14T09:23:46;9.65;;;3.30;;
38425;SDS011;24210;51.460;6.148;2024-02-14T09:28:36;7.00;;;2.40;;
38425;SDS011;24210;51.460;6.148;2024-02-14T09:31:04;6.72;;;2.97;;
38425;SDS011;24210;51.460;6.148;2024-02-14T09:33:30;3.63;;;2.83;;
38425;SDS011;24210;51.460;6.148;2024-02-14T09:35:55;5.13;;;3.17;;
38425;SDS011;24210;51.460;6.148;2024-02-14T09:38:20;6.53;;;2.23;;
38425;SDS011;24210;51.460;6.148;2024-02-14T09:40:46;5.50;;;2.10;;
38425;SDS011;24210;51.460;6.148;2024-02-14T09:45:55;5.35;;;2.40;;
38425;SDS011;24210;51.460;6.148;2024-02-14T09:48:20;5.03;;;2.93;;
38425;SDS011;24210;51.460;6.148;2024-02-14T09:50:46;3.17;;;1.70;;
38425;SDS011;24210;51.460;6.148;2024-02-14T09:53:13;7.05;;;3.30;;
38425;SDS011;24210;51.460;6.148;2024-02-14T09:55:39;6.82;;;2.83;;
38425;SDS011;24210;51.460;6.148;2024-02-14T09:58:06;5.18;;;3.17;;
38425;SDS011;24210;51.460;6.148;2024-02-14T10:00:31;3.60;;;2.85;;
38425;SDS011;24210;51.460;6.148;2024-02-14T10:02:57;4.82;;;2.63;;
38425;SDS011;24210;51.460;6.148;2024-02-14T10:05:23;3.40;;;2.17;;
38425;SDS011;24210;51.460;6.148;2024-02-14T10:07:48;4.13;;;3.73;;
38425;SDS011;24210;51.460;6.148;2024-02-14T10:10:13;4.50;;;3.83;;
38425;SDS011;24210;51.460;6.148;2024-02-14T10:12:39;3.40;;;2.43;;
38425;SDS011;24210;51.460;6.148;2024-02-14T10:15:06;4.60;;;3.17;;
38425;SDS011;24210;51.460;6.148;2024-02-14T10:17:34;6.47;;;3.27;;
38425;SDS011;24210;51.460;6.148;2024-02-14T10:20:00;5.30;;;3.05;;
38425;SDS011;24210;51.460;6.148;2024-02-14T10:22:34;5.72;;;3.50;;
38425;SDS011;24210;51.460;6.148;2024-02-14T10:25:01;5.60;;;3.17;;
38425;SDS011;24210;51.460;6.148;2024-02-14T10:27:26;4.73;;;2.93;;
38425;SDS011;24210;51.460;6.148;2024-02-14T10:29:51;4.50;;;2.50;;
38425;SDS011;24210;51.460;6.148;2024-02-14T10:32:17;3.73;;;2.30;;
38425;SDS011;24210;51.460;6.148;2024-02-14T10:34:43;1.80;;;1.47;;
38425;SDS011;24210;51.460;6.148;2024-02-14T10:37:10;7.43;;;2.97;;
38425;SDS011;24210;51.460;6.148;2024-02-14T10:39:38;5.45;;;3.05;;
38425;SDS011;24210;51.460;6.148;2024-02-14T10:42:06;4.05;;;3.10;;
38425;SDS011;24210;51.460;6.148;2024-02-14T10:44:31;3.93;;;3.10;;
38425;SDS011;24210;51.460;6.148;2024-02-14T10:46:56;4.13;;;2.83;;
38425;SDS011;24210;51.460;6.148;2024-02-14T10:49:23;3.70;;;1.60;;
38425;SDS011;24210;51.460;6.148;2024-02-14T10:51:51;1.92;;;1.08;;
38425;SDS011;24210;51.460;6.148;2024-02-14T10:54:18;2.50;;;2.15;;
38425;SDS011;24210;51.460;6.148;2024-02-14T10:56:45;3.88;;;1.67;;
38425;SDS011;24210;51.460;6.148;2024-02-14T10:59:15;2.85;;;2.10;;
38425;SDS011;24210;51.460;6.148;2024-02-14T11:01:40;4.40;;;2.85;;
38425;SDS011;24210;51.460;6.148;2024-02-14T11:04:06;5.07;;;2.40;;
38425;SDS011;24210;51.460;6.148;2024-02-14T11:06:32;3.03;;;2.73;;
38425;SDS011;24210;51.460;6.148;2024-02-14T11:09:02;2.47;;;2.28;;
38425;SDS011;24210;51.460;6.148;2024-02-14T11:11:32;3.60;;;2.78;;
38425;SDS011;24210;51.460;6.148;2024-02-14T11:13:57;4.87;;;3.10;;
38425;SDS011;24210;51.460;6.148;2024-02-14T11:16:24;2.97;;;2.10;;
38425;SDS011;24210;51.460;6.148;2024-02-14T11:18:50;4.22;;;1.75;;
38425;SDS011;24210;51.460;6.148;2024-02-14T11:21:15;9.00;;;2.13;;
38425;SDS011;24210;51.460;6.148;2024-02-14T11:23:41;1.87;;;1.60;;
38425;SDS011;24210;51.460;6.148;2024-02-14T11:26:14;3.15;;;1.83;;
38425;SDS011;24210;51.460;6.148;2024-02-14T11:28:40;3.78;;;2.70;;
38425;SDS011;24210;51.460;6.148;2024-02-14T11:31:06;3.03;;;2.27;;
38425;SDS011;24210;51.460;6.148;2024-02-14T11:33:32;3.95;;;2.15;;
38425;SDS011;24210;51.460;6.148;2024-02-14T11:35:57;2.93;;;2.20;;
38425;SDS011;24210;51.460;6.148;2024-02-14T11:38:24;1.60;;;0.93;;
38425;SDS011;24210;51.460;6.148;2024-02-14T11:40:55;1.42;;;1.15;;
38425;SDS011;24210;51.460;6.148;2024-02-14T11:43:21;3.90;;;2.13;;
38425;SDS011;24210;51.460;6.148;2024-02-14T11:45:47;3.50;;;2.20;;
38425;SDS011;24210;51.460;6.148;2024-02-14T11:48:15;1.75;;;0.90;;
38425;SDS011;24210;51.460;6.148;2024-02-14T11:50:41;2.10;;;1.03;;
38425;SDS011;24210;51.460;6.148;2024-02-14T11:53:06;5.13;;;1.70;;
38425;SDS011;24210;51.460;6.148;2024-02-14T11:55:36;1.13;;;1.00;;
38425;SDS011;24210;51.460;6.148;2024-02-14T11:58:02;2.80;;;1.20;;
38425;SDS011;24210;51.460;6.148;2024-02-14T12:00:28;1.92;;;1.40;;
38425;SDS011;24210;51.460;6.148;2024-02-14T12:02:53;2.67;;;0.93;;
38425;SDS011;24210;51.460;6.148;2024-02-14T12:05:19;2.93;;;1.33;;
38425;SDS011;24210;51.460;6.148;2024-02-14T12:07:44;3.23;;;1.30;;
38425;SDS011;24210;51.460;6.148;2024-02-14T12:10:10;2.80;;;1.67;;
38425;SDS011;24210;51.460;6.148;2024-02-14T12:12:37;1.65;;;1.40;;
38425;SDS011;24210;51.460;6.148;2024-02-14T12:15:02;1.20;;;1.10;;
38425;SDS011;24210;51.460;6.148;2024-02-14T12:17:28;2.87;;;1.37;;
38425;SDS011;24210;51.460;6.148;2024-02-14T12:20:04;3.83;;;1.27;;
38425;SDS011;24210;51.460;6.148;2024-02-14T12:22:30;2.55;;;1.20;;
38425;SDS011;24210;51.460;6.148;2024-02-14T12:24:56;1.03;;;0.83;;
38425;SDS011;24210;51.460;6.148;2024-02-14T12:27:22;0.95;;;0.80;;
38425;SDS011;24210;51.460;6.148;2024-02-14T12:29:47;1.13;;;0.97;;
38425;SDS011;24210;51.460;6.148;2024-02-14T12:32:15;1.17;;;1.10;;
38425;SDS011;24210;51.460;6.148;2024-02-14T12:34:41;3.05;;;1.35;;
38425;SDS011;24210;51.460;6.148;2024-02-14T12:37:09;0.75;;;0.75;;
38425;SDS011;24210;51.460;6.148;2024-02-14T12:39:34;0.67;;;0.60;;
38425;SDS011;24210;51.460;6.148;2024-02-14T12:42:00;1.50;;;1.02;;
38425;SDS011;24210;51.460;6.148;2024-02-14T12:44:27;0.90;;;0.90;;
38425;SDS011;24210;51.460;6.148;2024-02-14T12:46:52;1.10;;;1.00;;
38425;SDS011;24210;51.460;6.148;2024-02-14T12:49:19;2.35;;;0.55;;
38425;SDS011;24210;51.460;6.148;2024-02-14T12:51:44;0.77;;;0.77;;
38425;SDS011;24210;51.460;6.148;2024-02-14T12:54:09;3.07;;;1.57;;
38425;SDS011;24210;51.460;6.148;2024-02-14T12:56:37;1.23;;;1.00;;
38425;SDS011;24210;51.460;6.148;2024-02-14T12:59:02;1.23;;;0.60;;
38425;SDS011;24210;51.460;6.148;2024-02-14T13:01:27;1.33;;;0.47;;
38425;SDS011;24210;51.460;6.148;2024-02-14T13:03:53;3.07;;;1.43;;
38425;SDS011;24210;51.460;6.148;2024-02-14T13:06:18;4.13;;;0.87;;
38425;SDS011;24210;51.460;6.148;2024-02-14T13:08:43;0.80;;;0.80;;
38425;SDS011;24210;51.460;6.148;2024-02-14T13:11:09;1.60;;;1.07;;
38425;SDS011;24210;51.460;6.148;2024-02-14T13:13:34;1.60;;;1.20;;
38425;SDS011;24210;51.460;6.148;2024-02-14T13:16:00;0.77;;;0.77;;
38425;SDS011;24210;51.460;6.148;2024-02-14T13:18:25;2.57;;;1.00;;
38425;SDS011;24210;51.460;6.148;2024-02-14T13:20:50;1.23;;;0.70;;
38425;SDS011;24210;51.460;6.148;2024-02-14T13:23:22;1.10;;;1.00;;
38425;SDS011;24210;51.460;6.148;2024-02-14T13:25:48;0.65;;;0.63;;
38425;SDS011;24210;51.460;6.148;2024-02-14T13:28:13;1.33;;;0.90;;
38425;SDS011;24210;51.460;6.148;2024-02-14T13:30:39;4.67;;;1.40;;
38425;SDS011;24210;51.460;6.148;2024-02-14T13:33:05;0.95;;;0.80;;
38425;SDS011;24210;51.460;6.148;2024-02-14T13:35:30;1.10;;;1.00;;
38425;SDS011;24210;51.460;6.148;2024-02-14T13:37:56;0.88;;;0.63;;
38425;SDS011;24210;51.460;6.148;2024-02-14T13:40:22;1.20;;;0.93;;
38425;SDS011;24210;51.460;6.148;2024-02-14T13:42:48;0.80;;;0.80;;
38425;SDS011;24210;51.460;6.148;2024-02-14T13:45:14;0.87;;;0.70;;
38425;SDS011;24210;51.460;6.148;2024-02-14T13:47:41;1.85;;;1.15;;
38425;SDS011;24210;51.460;6.148;2024-02-14T13:50:08;1.92;;;0.88;;
38425;SDS011;24210;51.460;6.148;2024-02-14T13:52:34;1.27;;;0.73;;
38425;SDS011;24210;51.460;6.148;2024-02-14T13:55:00;1.40;;;0.90;;
38425;SDS011;24210;51.460;6.148;2024-02-14T13:57:27;1.23;;;1.10;;
38425;SDS011;24210;51.460;6.148;2024-02-14T13:59:52;4.30;;;0.87;;
38425;SDS011;24210;51.460;6.148;2024-02-14T14:04:44;0.45;;;0.45;;
38425;SDS011;24210;51.460;6.148;2024-02-14T14:07:09;0.60;;;0.60;;
38425;SDS011;24210;51.460;6.148;2024-02-14T14:09:34;0.37;;;0.33;;
38425;SDS011;24210;51.460;6.148;2024-02-14T14:12:00;0.93;;;0.20;;
38425;SDS011;24210;51.460;6.148;2024-02-14T14:14:25;0.73;;;0.40;;
38425;SDS011;24210;51.460;6.148;2024-02-14T14:16:52;0.55;;;0.55;;
38425;SDS011;24210;51.460;6.148;2024-02-14T14:19:17;0.63;;;0.27;;
38425;SDS011;24210;51.460;6.148;2024-02-14T14:21:42;0.60;;;0.30;;
38425;SDS011;24210;51.460;6.148;2024-02-14T14:24:08;0.70;;;0.50;;
38425;SDS011;24210;51.460;6.148;2024-02-14T14:26:33;0.23;;;0.23;;
38425;SDS011;24210;51.460;6.148;2024-02-14T14:28:59;0.60;;;0.20;;
38425;SDS011;24210;51.460;6.148;2024-02-14T14:31:24;0.30;;;0.30;;
38425;SDS011;24210;51.460;6.148;2024-02-14T14:33:49;1.20;;;1.10;;
38425;SDS011;24210;51.460;6.148;2024-02-14T14:36:14;0.30;;;0.30;;
38425;SDS011;24210;51.460;6.148;2024-02-14T14:38:40;2.53;;;0.73;;
38425;SDS011;24210;51.460;6.148;2024-02-14T14:41:05;0.30;;;0.30;;
38425;SDS011;24210;51.460;6.148;2024-02-14T14:43:31;0.17;;;0.17;;
38425;SDS011;24210;51.460;6.148;2024-02-14T14:45:56;0.43;;;0.40;;
38425;SDS011;24210;51.460;6.148;2024-02-14T14:48:22;1.27;;;1.00;;
38425;SDS011;24210;51.460;6.148;2024-02-14T14:50:47;0.63;;;0.63;;
38425;SDS011;24210;51.460;6.148;2024-02-14T14:53:12;1.47;;;0.60;;
38425;SDS011;24210;51.460;6.148;2024-02-14T14:55:53;0.90;;;0.77;;